createdAt,value
2023-05-09T00:00:12.827Z,100299.59
2023-05-09T00:03:16.967Z,100309.19
2023-05-09T00:06:19.927Z,100306.75
2023-05-09T00:09:22.744Z,100302.66
2023-05-09T00:12:25.566Z,100300.84
2023-05-09T00:15:29.000Z,100305.06
2023-05-09T00:18:34.190Z,100302.53
2023-05-09T00:21:37.016Z,100312.59
2023-05-09T00:24:39.911Z,100315.03
2023-05-09T00:27:42.657Z,100326.41
2023-05-09T00:30:45.738Z,100312.50
2023-05-09T00:33:49.909Z,100310.66
2023-05-09T00:36:52.682Z,100310.41
2023-05-09T00:39:55.457Z,100312.84
2023-05-09T00:42:59.803Z,100309.69
2023-05-09T00:46:02.655Z,100308.00
2023-05-09T00:49:06.966Z,100311.94
2023-05-09T00:52:09.790Z,100310.41
2023-05-09T00:55:12.883Z,100309.19
2023-05-09T00:58:16.015Z,100309.56
2023-05-09T01:01:18.921Z,100309.69
2023-05-09T01:04:23.275Z,100305.06
2023-05-09T01:07:31.524Z,100303.63
2023-05-09T01:10:36.552Z,100305.19
2023-05-09T01:13:42.526Z,100306.28
2023-05-09T01:16:49.415Z,100311.94
2023-05-09T01:20:01.404Z,100304.59
2023-05-09T01:23:13.470Z,100306.19
2023-05-09T01:26:20.317Z,100299.00
2023-05-09T01:29:32.918Z,100305.56
2023-05-09T01:32:37.526Z,100308.50
2023-05-09T01:35:43.838Z,100303.88
2023-05-09T01:38:49.875Z,100308.38
2023-05-09T01:41:53.388Z,100309.47
2023-05-09T01:44:58.673Z,100305.56
2023-05-09T01:48:05.552Z,100305.84
2023-05-09T01:51:10.292Z,100306.81
2023-05-09T01:54:13.704Z,100309.47
2023-05-09T01:57:17.030Z,100307.53
2023-05-09T02:00:21.264Z,100307.03
2023-05-09T02:03:24.228Z,100310.56
2023-05-09T02:06:29.811Z,100307.88
2023-05-09T02:09:32.604Z,100313.09
2023-05-09T02:12:35.322Z,100310.41
2023-05-09T02:15:40.083Z,100308.03
2023-05-09T02:18:42.857Z,100313.84
2023-05-09T02:21:45.726Z,100309.72
2023-05-09T02:24:48.587Z,100306.56
2023-05-09T02:27:52.715Z,100316.03
2023-05-09T02:30:58.732Z,100316.16
2023-05-09T02:34:03.046Z,100309.13
2023-05-09T02:37:06.518Z,100301.13
2023-05-09T02:40:10.606Z,100307.31
2023-05-09T02:43:15.188Z,100305.00
2023-05-09T02:46:19.537Z,100313.84
2023-05-09T02:49:31.546Z,100314.84
2023-05-09T02:52:35.429Z,100314.97
2023-05-09T02:55:38.417Z,100308.53
2023-05-09T02:58:41.210Z,100318.34
2023-05-09T03:01:45.525Z,100314.47
2023-05-09T03:04:48.417Z,100312.88
2023-05-09T03:07:51.657Z,100315.31
2023-05-09T03:10:54.459Z,100327.91
2023-05-09T03:13:57.229Z,100326.22
2023-05-09T03:17:01.395Z,100327.81
2023-05-09T03:20:05.617Z,100325.00
2023-05-09T03:23:08.456Z,100338.19
2023-05-09T03:26:11.194Z,100332.88
2023-05-09T03:29:14.017Z,100334.97
2023-05-09T03:32:18.146Z,100329.22
2023-05-09T03:35:21.053Z,100327.41
2023-05-09T03:38:24.446Z,100335.53
2023-05-09T03:41:27.298Z,100330.91
2023-05-09T03:44:30.093Z,100328.38
2023-05-09T03:47:34.243Z,100332.03
2023-05-09T03:50:37.196Z,100332.75
2023-05-09T03:53:39.944Z,100332.38
2023-05-09T03:56:42.793Z,100334.97
2023-05-09T03:59:45.611Z,100336.38
2023-05-09T04:02:49.986Z,100333.72
2023-05-09T04:05:52.914Z,100335.31
2023-05-09T04:08:55.685Z,100330.81
2023-05-09T04:11:58.467Z,100335.16
2023-05-09T04:15:01.293Z,100342.44
2023-05-09T04:18:05.821Z,100333.94
2023-05-09T04:21:08.666Z,100335.88
2023-05-09T04:24:11.762Z,100337.22
2023-05-09T04:27:14.504Z,100338.75
2023-05-09T04:30:17.612Z,100345.56
2023-05-09T04:33:22.261Z,100339.03
2023-05-09T04:36:25.212Z,100349.31
2023-05-09T04:39:28.022Z,100346.16
2023-05-09T04:42:33.539Z,100343.97
2023-05-09T04:45:36.372Z,100344.59
2023-05-09T04:48:40.525Z,100346.31
2023-05-09T04:51:43.297Z,100345.09
2023-05-09T04:54:46.176Z,100349.44
2023-05-09T04:57:48.954Z,100344.94
2023-05-09T05:00:51.744Z,100349.94
2023-05-09T05:03:56.089Z,100344.34
2023-05-09T05:06:58.858Z,100353.69
2023-05-09T05:10:01.654Z,100347.16
2023-05-09T05:13:04.426Z,100347.00
2023-05-09T05:16:07.369Z,100346.78
2023-05-09T05:19:11.586Z,100347.00
2023-05-09T05:22:14.299Z,100352.69
2023-05-09T05:25:17.887Z,100361.88
2023-05-09T05:28:20.786Z,100346.00
2023-05-09T05:31:23.827Z,100352.47
2023-05-09T05:34:28.003Z,100352.47
2023-05-09T05:37:30.794Z,100344.31
2023-05-09T05:40:33.638Z,100351.81
2023-05-09T05:43:36.347Z,100358.13
2023-05-09T05:46:39.176Z,100353.50
2023-05-09T05:49:43.332Z,100352.53
2023-05-09T05:52:46.067Z,100349.72
2023-05-09T05:55:49.231Z,100353.13
2023-05-09T05:58:52.081Z,100353.97
2023-05-09T06:01:54.876Z,100346.69
2023-05-09T06:04:59.047Z,100351.19
2023-05-09T06:08:01.842Z,100352.72
2023-05-09T06:11:06.021Z,100351.88
2023-05-09T06:14:08.889Z,100346.44
2023-05-09T06:17:11.899Z,100338.16
2023-05-09T06:20:16.109Z,100343.63
2023-05-09T06:23:22.261Z,100331.97
2023-05-09T06:26:25.086Z,100336.94
2023-05-09T06:29:27.936Z,100334.66
2023-05-09T06:32:30.681Z,100335.13
2023-05-09T06:35:34.921Z,100325.38
2023-05-09T06:38:37.703Z,100333.28
2023-05-09T06:41:40.633Z,100334.97
2023-05-09T06:44:44.017Z,100334.13
2023-05-09T06:47:46.843Z,100326.00
2023-05-09T06:50:51.450Z,100330.22
2023-05-09T06:53:54.170Z,100329.13
2023-05-09T06:56:57.000Z,100330.22
2023-05-09T06:59:59.743Z,100338.81
2023-05-09T07:03:02.618Z,100328.16
2023-05-09T07:06:07.127Z,100325.09
2023-05-09T07:09:10.093Z,100326.03
2023-05-09T07:12:12.847Z,100318.03
2023-05-09T07:15:25.604Z,100323.50
2023-05-09T07:18:31.753Z,100320.59
2023-05-09T07:21:35.937Z,100326.38
2023-05-09T07:24:38.738Z,100313.31
2023-05-09T07:27:41.550Z,100311.47
2023-05-09T07:30:44.342Z,100313.75
2023-05-09T07:33:47.060Z,100315.44
2023-05-09T07:36:51.237Z,100309.25
2023-05-09T07:39:54.341Z,100304.03
2023-05-09T07:42:57.129Z,100312.91
2023-05-09T07:45:59.993Z,100297.97
2023-05-09T07:49:02.863Z,100302.81
2023-05-09T07:52:07.190Z,100300.59
2023-05-09T07:55:10.559Z,100297.19
2023-05-09T07:58:13.302Z,100293.41
2023-05-09T08:01:16.256Z,100282.34
2023-05-09T08:04:19.049Z,100283.59
2023-05-09T08:07:23.148Z,100287.94
2023-05-09T08:10:27.016Z,100278.69
2023-05-09T08:13:29.898Z,100279.69
2023-05-09T08:16:32.844Z,100272.22
2023-05-09T08:19:35.723Z,100275.03
2023-05-09T08:22:41.364Z,100263.75
2023-05-09T08:25:44.245Z,100257.09
2023-05-09T08:28:47.040Z,100260.41
2023-05-09T08:31:49.902Z,100266.38
2023-05-09T08:34:52.817Z,100264.22
2023-05-09T08:37:56.965Z,100266.41
2023-05-09T08:41:03.317Z,100263.22
2023-05-09T08:44:06.274Z,100267.19
2023-05-09T08:47:09.109Z,100250.88
2023-05-09T08:50:15.413Z,100253.19
2023-05-09T08:53:19.843Z,100256.63
2023-05-09T08:56:22.685Z,100254.38
2023-05-09T08:59:25.547Z,100236.75
2023-05-09T09:02:30.232Z,100237.34
2023-05-09T09:05:41.414Z,100234.53
2023-05-09T09:08:47.156Z,100243.53
2023-05-09T09:11:50.070Z,100235.22
2023-05-09T09:14:55.498Z,100242.41
2023-05-09T09:17:59.325Z,100241.41
2023-05-09T09:21:06.753Z,100235.81
2023-05-09T09:24:13.959Z,100239.47
2023-05-09T09:27:16.961Z,100234.13
2023-05-09T09:30:20.046Z,100229.63
2023-05-09T09:33:23.104Z,100234.69
2023-05-09T09:36:29.451Z,100233.41
2023-05-09T09:39:33.763Z,100227.81
2023-05-09T09:42:43.491Z,100229.22
2023-05-09T09:45:49.696Z,100226.81
2023-05-09T09:48:55.873Z,100227.66
2023-05-09T09:51:59.350Z,100217.97
2023-05-09T09:55:04.777Z,100226.97
2023-05-09T09:58:17.280Z,100224.75
2023-05-09T10:01:20.895Z,100218.81
2023-05-09T10:04:26.557Z,100220.50
2023-05-09T10:07:34.400Z,100215.75
2023-05-09T10:10:39.095Z,100217.97
2023-05-09T10:13:42.628Z,100223.44
2023-05-09T10:16:45.742Z,100206.44
2023-05-09T10:19:50.888Z,100215.28
2023-05-09T10:22:55.310Z,100216.00
2023-05-09T10:26:06.135Z,100219.41
2023-05-09T10:29:11.777Z,100209.94
2023-05-09T10:32:17.378Z,100212.91
2023-05-09T10:35:21.322Z,100210.66
2023-05-09T10:38:24.716Z,100209.41
2023-05-09T10:41:29.656Z,100206.03
2023-05-09T10:44:34.208Z,100211.25
2023-05-09T10:47:37.429Z,100208.56
2023-05-09T10:50:42.664Z,100218.13
2023-05-09T10:53:46.488Z,100203.22
2023-05-09T10:56:50.621Z,100212.22
2023-05-09T10:59:53.428Z,100204.78
2023-05-09T11:03:08.962Z,100196.06
2023-05-09T11:06:34.935Z,100209.41
2023-05-09T11:09:39.174Z,100213.91
2023-05-09T11:12:57.782Z,100196.63
2023-05-09T11:16:11.994Z,100207.31
2023-05-09T11:19:34.405Z,100201.97
2023-05-09T11:22:41.447Z,100196.06
2023-05-09T11:25:46.751Z,100192.03
2023-05-09T11:28:57.508Z,100178.69
2023-05-09T11:32:07.206Z,100189.22
2023-05-09T11:35:11.220Z,100180.50
2023-05-09T11:38:22.278Z,100180.38
2023-05-09T11:41:25.760Z,100169.69
2023-05-09T11:44:31.858Z,100167.38
2023-05-09T11:47:36.795Z,100171.63
2023-05-09T11:50:41.270Z,100172.06
2023-05-09T11:53:46.928Z,100162.22
2023-05-09T11:56:49.697Z,100166.72
2023-05-09T11:59:54.005Z,100163.91
2023-05-09T12:02:57.054Z,100163.06
2023-05-09T12:06:00.206Z,100153.81
2023-05-09T12:09:02.975Z,100151.00
2023-05-09T12:12:10.948Z,100149.31
2023-05-09T12:15:15.617Z,100157.31
2023-05-09T12:18:18.633Z,100160.13
2023-05-09T12:21:22.251Z,100148.75
2023-05-09T12:24:26.738Z,100152.13
2023-05-09T12:27:29.762Z,100142.41
2023-05-09T12:30:34.048Z,100136.94
2023-05-09T12:34:01.833Z,100142.28
2023-05-09T12:37:05.838Z,100136.09
2023-05-09T12:40:12.589Z,100133.56
2023-05-09T12:43:15.605Z,100127.94
2023-05-09T12:46:20.558Z,100127.94
2023-05-09T12:49:23.788Z,100119.06
2023-05-09T12:52:26.952Z,100127.94
2023-05-09T12:55:30.041Z,100120.75
2023-05-09T12:58:33.681Z,100110.66
2023-05-09T13:01:37.836Z,100119.38
2023-05-09T13:04:40.575Z,100114.88
2023-05-09T13:07:43.791Z,100109.38
2023-05-09T13:10:47.640Z,100109.38
2023-05-09T13:13:50.500Z,100111.50
2023-05-09T13:16:55.012Z,100111.50
2023-05-09T13:19:57.768Z,100102.78
2023-05-09T13:23:00.527Z,100101.94
2023-05-09T13:26:03.663Z,100104.47
2023-05-09T13:29:06.396Z,100098.53
2023-05-09T13:32:10.491Z,100107.13
2023-05-09T13:35:13.256Z,100110.66
2023-05-09T13:38:16.047Z,100110.66
2023-05-09T13:41:23.788Z,100108.56
2023-05-09T13:44:26.836Z,100104.91
2023-05-09T13:47:31.111Z,100099.66
2023-05-09T13:50:34.012Z,100104.91
2023-05-09T13:53:38.858Z,100100.41
2023-05-09T13:56:42.867Z,100103.31
2023-05-09T13:59:45.689Z,100090.69
2023-05-09T14:02:49.874Z,100091.53
2023-05-09T14:05:52.724Z,100089.84
2023-05-09T14:08:55.451Z,100089.84
2023-05-09T14:12:01.136Z,100095.31
2023-05-09T14:15:04.795Z,100088.13
2023-05-09T14:18:09.012Z,100091.53
2023-05-09T14:21:11.851Z,100088.44
2023-05-09T14:24:16.320Z,100101.66
2023-05-09T14:27:19.171Z,100097.28
2023-05-09T14:30:21.960Z,100097.44
2023-05-09T14:33:26.696Z,100098.41
2023-05-09T14:36:29.710Z,100096.59
2023-05-09T14:39:32.504Z,100101.09
2023-05-09T14:42:35.623Z,100102.06
2023-05-09T14:45:38.531Z,100106.03
2023-05-09T14:48:42.673Z,100095.75
2023-05-09T14:51:45.690Z,100099.00
2023-05-09T14:54:48.415Z,100094.22
2023-05-09T14:57:51.210Z,100094.91
2023-05-09T15:00:54.732Z,100092.09
2023-05-09T15:03:58.916Z,100086.03
2023-05-09T15:07:01.752Z,100085.91
2023-05-09T15:10:04.682Z,100095.06
2023-05-09T15:13:07.725Z,100096.31
2023-05-09T15:16:10.532Z,100090.69
2023-05-09T15:19:14.815Z,100097.72
2023-05-09T15:22:17.622Z,100094.31
2023-05-09T15:25:20.606Z,100086.19
2023-05-09T15:28:23.909Z,100088.97
2023-05-09T15:31:26.784Z,100087.19
2023-05-09T15:34:30.935Z,100081.84
2023-05-09T15:37:35.783Z,100082.09
2023-05-09T15:40:39.331Z,100084.06
2023-05-09T15:43:42.203Z,100086.88
2023-05-09T15:46:45.097Z,100095.03
2023-05-09T15:49:49.265Z,100086.47
2023-05-09T15:52:52.869Z,100093.63
2023-05-09T15:55:55.657Z,100082.22
2023-05-09T15:58:59.341Z,100082.66
2023-05-09T16:02:02.261Z,100083.34
2023-05-09T16:05:06.897Z,100082.50
2023-05-09T16:08:09.702Z,100068.59
2023-05-09T16:11:12.470Z,100076.63
2023-05-09T16:14:15.262Z,100072.13
2023-05-09T16:17:18.031Z,100073.78
2023-05-09T16:20:22.155Z,100070.41
2023-05-09T16:23:25.976Z,100075.03
2023-05-09T16:26:28.783Z,100068.72
2023-05-09T16:29:31.550Z,100068.00
2023-05-09T16:32:34.356Z,100069.69
2023-05-09T16:35:38.549Z,100074.78
2023-05-09T16:38:41.555Z,100081.50
2023-05-09T16:41:44.624Z,100083.00
2023-05-09T16:44:47.917Z,100081.38
2023-05-09T16:47:51.173Z,100088.59
2023-05-09T16:50:55.449Z,100073.38
2023-05-09T16:53:58.625Z,100080.72
2023-05-09T16:57:03.311Z,100082.75
2023-05-09T17:00:07.981Z,100089.94
2023-05-09T17:03:10.797Z,100079.78
2023-05-09T17:06:15.051Z,100090.13
2023-05-09T17:09:17.788Z,100080.16
2023-05-09T17:12:20.619Z,100084.50
2023-05-09T17:15:23.375Z,100085.19
2023-05-09T17:18:37.547Z,100090.69
2023-05-09T17:21:43.330Z,100092.13
2023-05-09T17:24:46.073Z,100100.53
2023-05-09T17:27:49.405Z,100093.34
2023-05-09T17:30:52.132Z,100103.47
2023-05-09T17:33:54.856Z,100098.97
2023-05-09T17:36:59.012Z,100101.66
2023-05-09T17:40:01.770Z,100104.31
2023-05-09T17:43:04.526Z,100108.53
2023-05-09T17:46:08.185Z,100114.00
2023-05-09T17:49:14.091Z,100113.72
2023-05-09T17:52:18.462Z,100113.16
2023-05-09T17:55:21.431Z,100116.94
2023-05-09T17:58:24.372Z,100109.66
2023-05-09T18:01:27.214Z,100108.09
2023-05-09T18:04:31.613Z,100107.94
2023-05-09T18:07:35.927Z,100100.81
2023-05-09T18:10:38.743Z,100103.03
2023-05-09T18:13:41.518Z,100114.25
2023-05-09T18:16:44.326Z,100106.53
2023-05-09T18:19:47.066Z,100101.34
2023-05-09T18:22:51.262Z,100098.94
2023-05-09T18:25:55.167Z,100105.09
2023-05-09T18:28:59.037Z,100107.63
2023-05-09T18:32:02.120Z,100095.28
2023-05-09T18:35:05.525Z,100105.84
2023-05-09T18:38:09.654Z,100099.78
2023-05-09T18:41:13.290Z,100105.09
2023-05-09T18:44:16.007Z,100100.59
2023-05-09T18:47:18.942Z,100104.72
2023-05-09T18:50:23.227Z,100096.06
2023-05-09T18:53:28.976Z,100100.19
2023-05-09T18:56:37.652Z,100097.28
2023-05-09T18:59:40.801Z,100102.94
2023-05-09T19:02:45.019Z,100098.94
2023-05-09T19:05:47.987Z,100100.25
2023-05-09T19:08:53.939Z,100088.16
2023-05-09T19:11:56.699Z,100102.28
2023-05-09T19:14:59.497Z,100103.50
2023-05-09T19:18:02.443Z,100093.94
2023-05-09T19:21:05.473Z,100101.59
2023-05-09T19:24:09.822Z,100093.56
2023-05-09T19:27:12.579Z,100084.16
2023-05-09T19:30:16.380Z,100092.84
2023-05-09T19:33:19.676Z,100088.81
2023-05-09T19:36:22.499Z,100089.22
2023-05-09T19:39:26.712Z,100085.53
2023-05-09T19:42:29.479Z,100089.53
2023-05-09T19:45:32.316Z,100082.47
2023-05-09T19:48:35.919Z,100086.03
2023-05-09T19:51:38.785Z,100085.78
2023-05-09T19:54:42.923Z,100085.47
2023-05-09T19:57:45.792Z,100083.34
2023-05-09T20:00:49.465Z,100086.59
2023-05-09T20:03:52.850Z,100078.97
2023-05-09T20:06:55.608Z,100078.91
2023-05-09T20:09:59.776Z,100076.00
2023-05-09T20:13:04.404Z,100083.09
2023-05-09T20:16:07.260Z,100087.47
2023-05-09T20:19:10.031Z,100081.75
2023-05-09T20:22:12.721Z,100083.50
2023-05-09T20:25:16.767Z,100080.75
2023-05-09T20:28:20.519Z,100074.78
2023-05-09T20:31:23.268Z,100081.91
2023-05-09T20:34:27.275Z,100083.19
2023-05-09T20:37:30.071Z,100071.38
2023-05-09T20:40:34.186Z,100079.69
2023-05-09T20:43:36.918Z,100080.44
2023-05-09T20:46:40.326Z,100074.97
2023-05-09T20:49:43.159Z,100066.34
2023-05-09T20:52:45.980Z,100078.78
2023-05-09T20:55:50.699Z,100069.50
2023-05-09T20:58:53.640Z,100073.28
2023-05-09T21:01:56.661Z,100073.84
2023-05-09T21:04:59.375Z,100069.34
2023-05-09T21:08:02.089Z,100067.97
2023-05-09T21:11:06.148Z,100072.50
2023-05-09T21:14:09.317Z,100068.97
2023-05-09T21:17:12.166Z,100071.88
2023-05-09T21:20:15.613Z,100070.78
2023-05-09T21:23:18.970Z,100060.50
2023-05-09T21:26:23.291Z,100064.84
2023-05-09T21:29:26.045Z,100065.13
2023-05-09T21:32:29.049Z,100062.72
2023-05-09T21:35:31.774Z,100062.47
2023-05-09T21:38:34.464Z,100049.97
2023-05-09T21:41:39.291Z,100052.78
2023-05-09T21:44:41.941Z,100049.66
2023-05-09T21:47:44.728Z,100046.94
2023-05-09T21:50:47.550Z,100051.94
2023-05-09T21:53:50.286Z,100048.44
2023-05-09T21:56:54.417Z,100049.84
2023-05-09T22:00:01.210Z,100050.28
2023-05-09T22:03:04.103Z,100042.53
2023-05-09T22:06:07.731Z,100039.31
2023-05-09T22:09:10.794Z,100049.28
2023-05-09T22:12:14.861Z,100038.59
2023-05-09T22:15:17.539Z,100043.09
2023-05-09T22:18:20.164Z,100038.47
2023-05-09T22:21:22.881Z,100034.50
2023-05-09T22:24:25.589Z,100031.97
2023-05-09T22:27:29.666Z,100032.69
2023-05-09T22:30:32.361Z,100030.28
2023-05-09T22:33:35.230Z,100032.09
2023-05-09T22:36:38.008Z,100030.00
2023-05-09T22:39:40.773Z,100037.69
2023-05-09T22:42:44.960Z,100029.56
2023-05-09T22:45:47.745Z,100025.19
2023-05-09T22:48:50.610Z,100022.66
2023-05-09T22:51:53.388Z,100023.97
2023-05-09T22:54:56.244Z,100023.38
2023-05-09T22:58:00.414Z,100019.88
2023-05-09T23:01:03.309Z,100017.34
2023-05-09T23:04:06.278Z,100018.19
2023-05-09T23:07:09.061Z,100003.88
2023-05-09T23:10:11.863Z,100019.16
2023-05-09T23:13:16.084Z,100011.88
2023-05-09T23:16:18.840Z,100015.78
2023-05-09T23:19:21.674Z,100007.66
2023-05-09T23:22:24.428Z,100014.34
2023-05-09T23:25:27.178Z,100007.53
2023-05-09T23:28:31.443Z,100009.88
2023-05-09T23:31:34.232Z,100007.53
2023-05-09T23:34:37.088Z,100007.78
2023-05-09T23:37:39.900Z,100002.31
2023-05-09T23:40:44.927Z,100003.88
2023-05-09T23:43:49.169Z,100002.88
2023-05-09T23:46:52.002Z,100008.19
2023-05-09T23:49:54.843Z,99997.97
2023-05-09T23:52:57.594Z,99996.84
2023-05-09T23:56:00.423Z,99999.19
2023-05-09T23:59:04.583Z,99996.53
